UAL2929 KIAH-TXKF
Flight info
| Callsign | UAL2929 |
|---|---|
| Flight time | 3h 23m |
| Altitude | 35000 |
| Route | GUMBY3 GUSTI AWDAD SJI J2 DEFUN CABLO ZOOSS TAY KJ06U JAINS M326 JIMAC POPO1 |
| Aircraft | B738/M-VGDW/C |
Departure
| Time | 2026-05-07 12:38 |
|---|---|
| Airport | George Bush Intercontinental Airport (KIAH) |
Arrival
| Time | 2026-05-07 16:01 |
|---|---|
| Airport | L.F. Wade International Airport (TXKF) |
| Time | Latitude | Longitude | Altitude | Speed | Heading |
|---|---|---|---|---|---|
| 2026-05-07 12:32 | 29.98865 | -95.35702 | 105 ft | 0 kts | 159° |
| 2026-05-07 12:33 | 29.98864 | -95.35702 | 105 ft | 0 kts | 159° |
| 2026-05-07 12:34 | 29.98836 | -95.35685 | 105 ft | 7 kts | 132° |
| 2026-05-07 12:34 | 29.98844 | -95.35630 | 105 ft | 7 kts | 64° |
| 2026-05-07 12:34 | 29.98865 | -95.35579 | 105 ft | 8 kts | 64° |
| 2026-05-07 12:35 | 29.98892 | -95.35518 | 105 ft | 10 kts | 63° |
| 2026-05-07 12:35 | 29.98956 | -95.35471 | 105 ft | 13 kts | 357° |
| 2026-05-07 12:35 | 29.99045 | -95.35477 | 105 ft | 10 kts | 359° |
| 2026-05-07 12:35 | 29.99091 | -95.35478 | 105 ft | 4 kts | 359° |
| 2026-05-07 12:36 | 29.99119 | -95.35479 | 105 ft | 6 kts | 359° |
| 2026-05-07 12:36 | 29.99180 | -95.35479 | 105 ft | 12 kts | 360° |
| 2026-05-07 12:36 | 29.99253 | -95.35479 | 105 ft | 10 kts | 360° |
| 2026-05-07 12:36 | 29.99317 | -95.35479 | 105 ft | 8 kts | 360° |
| 2026-05-07 12:37 | 29.99342 | -95.35463 | 105 ft | 3 kts | 81° |
| 2026-05-07 12:37 | 29.99342 | -95.35456 | 105 ft | 0 kts | 90° |
| 2026-05-07 12:37 | 29.99342 | -95.35447 | 105 ft | 10 kts | 90° |
| 2026-05-07 12:37 | 29.99343 | -95.35100 | 105 ft | 75 kts | 91° |
| 2026-05-07 12:38 | 29.99343 | -95.34265 | 105 ft | 132 kts | 89° |
| 2026-05-07 12:38 | 29.99338 | -95.33030 | 147 ft | 176 kts | 91° |
| 2026-05-07 12:38 | 29.99284 | -95.31576 | 801 ft | 178 kts | 93° |
| 2026-05-07 12:38 | 29.99039 | -95.30164 | 1506 ft | 181 kts | 108° |
| 2026-05-07 12:39 | 29.98568 | -95.28784 | 1809 ft | 190 kts | 108° |
| 2026-05-07 12:39 | 29.98295 | -95.27941 | 2051 ft | 191 kts | 107° |
| 2026-05-07 12:39 | 29.97984 | -95.26891 | 2326 ft | 193 kts | 105° |
| 2026-05-07 12:39 | 29.97566 | -95.25405 | 2696 ft | 198 kts | 104° |
| 2026-05-07 12:40 | 29.97135 | -95.23850 | 2954 ft | 209 kts | 104° |
| 2026-05-07 12:40 | 29.96680 | -95.22203 | 3198 ft | 222 kts | 105° |
| 2026-05-07 12:40 | 29.96194 | -95.20441 | 3419 ft | 238 kts | 105° |
| 2026-05-07 12:40 | 29.95683 | -95.18581 | 3767 ft | 248 kts | 105° |
| 2026-05-07 12:41 | 29.95150 | -95.16621 | 4074 ft | 262 kts | 105° |
| 2026-05-07 12:41 | 29.94591 | -95.14576 | 4492 ft | 271 kts | 106° |
| 2026-05-07 12:41 | 29.94108 | -95.12487 | 4988 ft | 275 kts | 99° |
| 2026-05-07 12:41 | 29.93894 | -95.10284 | 5504 ft | 279 kts | 92° |
| 2026-05-07 12:42 | 29.93868 | -95.08021 | 5961 ft | 285 kts | 89° |
| 2026-05-07 12:42 | 29.93821 | -95.06143 | 6340 ft | 289 kts | 94° |
| 2026-05-07 12:42 | 29.93708 | -95.04528 | 6735 ft | 290 kts | 95° |
| 2026-05-07 12:42 | 29.93579 | -95.03042 | 7068 ft | 292 kts | 96° |
| 2026-05-07 12:43 | 29.93344 | -95.00705 | 7593 ft | 295 kts | 97° |
| 2026-05-07 12:43 | 29.93086 | -94.98340 | 8091 ft | 299 kts | 97° |
| 2026-05-07 12:43 | 29.92745 | -94.95168 | 8777 ft | 303 kts | 97° |
| 2026-05-07 12:43 | 29.92570 | -94.93533 | 9104 ft | 305 kts | 97° |
| 2026-05-07 12:44 | 29.92310 | -94.91083 | 9584 ft | 310 kts | 97° |
| 2026-05-07 12:44 | 29.92049 | -94.88594 | 10060 ft | 315 kts | 97° |
| 2026-05-07 12:44 | 29.91788 | -94.86089 | 10457 ft | 324 kts | 97° |
| 2026-05-07 12:44 | 29.91515 | -94.83452 | 10662 ft | 339 kts | 97° |
| 2026-05-07 12:45 | 29.91228 | -94.80697 | 10863 ft | 354 kts | 97° |
| 2026-05-07 12:45 | 29.90931 | -94.77819 | 11062 ft | 368 kts | 97° |
| 2026-05-07 12:45 | 29.90623 | -94.74854 | 11411 ft | 376 kts | 97° |
| 2026-05-07 12:45 | 29.90310 | -94.71838 | 11847 ft | 382 kts | 97° |
| 2026-05-07 12:46 | 29.90001 | -94.68781 | 12317 ft | 387 kts | 96° |
| 2026-05-07 12:46 | 29.89704 | -94.65679 | 12847 ft | 390 kts | 97° |
| 2026-05-07 12:46 | 29.89395 | -94.62567 | 13381 ft | 393 kts | 98° |
| 2026-05-07 12:46 | 29.89076 | -94.59410 | 13907 ft | 397 kts | 98° |
| 2026-05-07 12:47 | 29.88753 | -94.56243 | 14436 ft | 400 kts | 98° |
| 2026-05-07 12:47 | 29.88421 | -94.53037 | 14947 ft | 404 kts | 99° |
| 2026-05-07 12:47 | 29.88084 | -94.49821 | 15482 ft | 407 kts | 99° |
| 2026-05-07 12:47 | 29.87741 | -94.46566 | 16000 ft | 410 kts | 99° |
| 2026-05-07 12:48 | 29.87395 | -94.43284 | 16520 ft | 413 kts | 99° |
| 2026-05-07 12:48 | 29.87052 | -94.40032 | 17012 ft | 417 kts | 100° |
| 2026-05-07 12:48 | 29.86701 | -94.36702 | 17490 ft | 421 kts | 100° |
| 2026-05-07 12:48 | 29.86346 | -94.33337 | 17962 ft | 424 kts | 100° |
| 2026-05-07 12:49 | 29.86074 | -94.29931 | 18426 ft | 429 kts | 96° |
| 2026-05-07 12:49 | 29.85984 | -94.26468 | 18835 ft | 435 kts | 94° |
| 2026-05-07 12:49 | 29.85915 | -94.22968 | 19256 ft | 439 kts | 95° |
| 2026-05-07 12:49 | 29.85827 | -94.19439 | 19669 ft | 443 kts | 95° |
| 2026-05-07 12:50 | 29.85726 | -94.15876 | 20076 ft | 447 kts | 95° |
| 2026-05-07 12:50 | 29.85616 | -94.12284 | 20470 ft | 450 kts | 95° |
| 2026-05-07 12:50 | 29.85502 | -94.08657 | 20844 ft | 455 kts | 96° |
| 2026-05-07 12:50 | 29.85432 | -94.05038 | 21230 ft | 460 kts | 92° |
| 2026-05-07 12:51 | 29.85634 | -94.01336 | 21592 ft | 466 kts | 87° |
| 2026-05-07 12:51 | 29.86007 | -93.97616 | 21949 ft | 470 kts | 85° |
| 2026-05-07 12:51 | 29.86431 | -93.93876 | 22304 ft | 473 kts | 85° |
| 2026-05-07 12:51 | 29.86851 | -93.90091 | 22640 ft | 477 kts | 85° |
| 2026-05-07 12:52 | 29.87267 | -93.86281 | 22977 ft | 480 kts | 85° |
| 2026-05-07 12:52 | 29.87680 | -93.82445 | 23296 ft | 484 kts | 85° |
| 2026-05-07 12:52 | 29.88091 | -93.78588 | 23639 ft | 486 kts | 85° |
| 2026-05-07 12:52 | 29.88501 | -93.74702 | 23953 ft | 489 kts | 86° |
| 2026-05-07 12:53 | 29.88906 | -93.70847 | 24257 ft | 492 kts | 86° |
| 2026-05-07 12:53 | 29.89315 | -93.66926 | 24622 ft | 493 kts | 85° |
| 2026-05-07 12:53 | 29.89732 | -93.62990 | 24955 ft | 495 kts | 85° |
| 2026-05-07 12:53 | 29.90155 | -93.59050 | 25308 ft | 496 kts | 85° |
| 2026-05-07 12:54 | 29.90575 | -93.55086 | 25632 ft | 498 kts | 85° |
| 2026-05-07 12:54 | 29.90992 | -93.51121 | 25940 ft | 500 kts | 85° |
| 2026-05-07 12:54 | 29.91408 | -93.47133 | 26265 ft | 502 kts | 85° |
| 2026-05-07 12:54 | 29.91822 | -93.43137 | 26567 ft | 503 kts | 85° |
| 2026-05-07 12:55 | 29.92238 | -93.39113 | 26882 ft | 505 kts | 85° |
| 2026-05-07 12:55 | 29.92651 | -93.35086 | 27182 ft | 506 kts | 85° |
| 2026-05-07 12:55 | 29.93064 | -93.31049 | 27447 ft | 508 kts | 85° |
| 2026-05-07 12:55 | 29.93475 | -93.27057 | 27711 ft | 510 kts | 85° |
| 2026-05-07 12:56 | 29.93906 | -93.22938 | 27987 ft | 511 kts | 85° |
| 2026-05-07 12:56 | 29.94324 | -93.18851 | 28225 ft | 513 kts | 85° |
| 2026-05-07 12:56 | 29.94738 | -93.14747 | 28480 ft | 515 kts | 85° |
| 2026-05-07 12:56 | 29.95144 | -93.10691 | 28742 ft | 516 kts | 85° |
| 2026-05-07 12:57 | 29.95553 | -93.06569 | 28979 ft | 518 kts | 85° |
| 2026-05-07 12:57 | 29.95963 | -93.02429 | 29178 ft | 520 kts | 85° |
| 2026-05-07 12:57 | 29.96373 | -92.98274 | 29415 ft | 522 kts | 85° |
| 2026-05-07 12:57 | 29.96785 | -92.94114 | 29644 ft | 523 kts | 85° |
| 2026-05-07 12:58 | 29.97191 | -92.89935 | 29829 ft | 526 kts | 85° |
| 2026-05-07 12:58 | 29.97543 | -92.85731 | 30057 ft | 527 kts | 86° |
| 2026-05-07 12:58 | 29.97875 | -92.81521 | 30269 ft | 528 kts | 86° |
| 2026-05-07 12:58 | 29.98208 | -92.77290 | 30412 ft | 531 kts | 87° |
| 2026-05-07 12:59 | 29.98542 | -92.73039 | 30626 ft | 532 kts | 87° |
| 2026-05-07 12:59 | 29.98877 | -92.68765 | 30801 ft | 534 kts | 87° |
| 2026-05-07 12:59 | 29.99211 | -92.64487 | 30941 ft | 537 kts | 87° |
| 2026-05-07 12:59 | 29.99546 | -92.60189 | 31155 ft | 538 kts | 87° |
| 2026-05-07 13:00 | 29.99880 | -92.55889 | 31382 ft | 538 kts | 87° |
| 2026-05-07 13:00 | 30.00213 | -92.51590 | 31547 ft | 540 kts | 87° |
| 2026-05-07 13:00 | 30.00565 | -92.47253 | 31650 ft | 543 kts | 87° |
| 2026-05-07 13:00 | 30.00914 | -92.42924 | 31957 ft | 541 kts | 87° |
| 2026-05-07 13:01 | 30.01257 | -92.38609 | 32258 ft | 540 kts | 87° |
| 2026-05-07 13:01 | 30.01593 | -92.34345 | 32522 ft | 539 kts | 87° |
| 2026-05-07 13:01 | 30.01930 | -92.30034 | 32751 ft | 539 kts | 87° |
| 2026-05-07 13:01 | 30.02263 | -92.25731 | 32970 ft | 539 kts | 87° |
| 2026-05-07 13:02 | 30.02596 | -92.21418 | 33242 ft | 538 kts | 88° |
| 2026-05-07 13:02 | 30.02924 | -92.17127 | 33481 ft | 537 kts | 88° |
| 2026-05-07 13:02 | 30.03251 | -92.12834 | 33719 ft | 537 kts | 88° |
| 2026-05-07 13:02 | 30.03578 | -92.08529 | 33929 ft | 537 kts | 88° |
| 2026-05-07 13:03 | 30.03902 | -92.04235 | 34162 ft | 536 kts | 88° |
| 2026-05-07 13:03 | 30.04223 | -91.99955 | 34400 ft | 536 kts | 88° |
| 2026-05-07 13:03 | 30.04544 | -91.95665 | 34614 ft | 536 kts | 88° |
| 2026-05-07 13:03 | 30.04863 | -91.91383 | 34789 ft | 536 kts | 88° |
| 2026-05-07 13:04 | 30.05180 | -91.87097 | 34997 ft | 536 kts | 88° |
| 2026-05-07 13:04 | 30.05497 | -91.82795 | 35030 ft | 538 kts | 88° |
| 2026-05-07 13:04 | 30.06124 | -91.74239 | 35039 ft | 536 kts | 88° |
| 2026-05-07 13:05 | 30.06746 | -91.65673 | 35040 ft | 536 kts | 88° |
| 2026-05-07 13:05 | 30.07365 | -91.57079 | 35038 ft | 538 kts | 88° |
| 2026-05-07 13:06 | 30.07978 | -91.48479 | 35039 ft | 537 kts | 88° |
| 2026-05-07 13:06 | 30.08585 | -91.39873 | 35043 ft | 537 kts | 88° |
| 2026-05-07 13:07 | 30.09191 | -91.31259 | 35044 ft | 537 kts | 88° |
| 2026-05-07 13:07 | 30.09800 | -91.22707 | 35042 ft | 538 kts | 88° |
| 2026-05-07 13:08 | 30.10388 | -91.14098 | 35042 ft | 538 kts | 88° |
| 2026-05-07 13:08 | 30.10965 | -91.05491 | 35041 ft | 538 kts | 88° |
| 2026-05-07 13:09 | 30.11607 | -90.96868 | 35039 ft | 539 kts | 84° |
| 2026-05-07 13:09 | 30.13178 | -90.88391 | 35038 ft | 540 kts | 75° |
| 2026-05-07 13:10 | 30.15275 | -90.80043 | 35037 ft | 540 kts | 74° |
| 2026-05-07 13:10 | 30.17348 | -90.71710 | 35034 ft | 539 kts | 75° |
| 2026-05-07 13:11 | 30.19378 | -90.63432 | 35030 ft | 538 kts | 75° |
| 2026-05-07 13:11 | 30.21413 | -90.55090 | 35028 ft | 538 kts | 74° |
| 2026-05-07 13:12 | 30.23456 | -90.46775 | 35028 ft | 537 kts | 75° |
| 2026-05-07 13:12 | 30.25482 | -90.38452 | 35025 ft | 536 kts | 75° |
| 2026-05-07 13:13 | 30.27482 | -90.30186 | 35023 ft | 536 kts | 75° |
| 2026-05-07 13:13 | 30.29482 | -90.21876 | 35021 ft | 536 kts | 75° |
| 2026-05-07 13:14 | 30.31473 | -90.13573 | 35017 ft | 536 kts | 75° |
| 2026-05-07 13:14 | 30.33460 | -90.05258 | 35015 ft | 536 kts | 75° |
| 2026-05-07 13:15 | 30.35440 | -89.96944 | 35013 ft | 535 kts | 75° |
| 2026-05-07 13:15 | 30.37413 | -89.88638 | 35012 ft | 534 kts | 75° |
| 2026-05-07 13:16 | 30.39368 | -89.80376 | 35010 ft | 535 kts | 75° |
| 2026-05-07 13:16 | 30.41333 | -89.72051 | 35009 ft | 536 kts | 75° |
| 2026-05-07 13:17 | 30.43295 | -89.63710 | 35006 ft | 536 kts | 75° |
| 2026-05-07 13:17 | 30.45251 | -89.55373 | 35001 ft | 537 kts | 75° |
| 2026-05-07 13:18 | 30.47205 | -89.47014 | 34996 ft | 537 kts | 75° |
| 2026-05-07 13:18 | 30.49153 | -89.38656 | 34993 ft | 537 kts | 75° |
| 2026-05-07 13:19 | 30.51098 | -89.30283 | 34991 ft | 538 kts | 75° |
| 2026-05-07 13:19 | 30.53047 | -89.21875 | 34992 ft | 539 kts | 75° |
| 2026-05-07 13:20 | 30.54956 | -89.13476 | 34994 ft | 545 kts | 76° |
| 2026-05-07 13:20 | 30.56934 | -89.04963 | 34980 ft | 545 kts | 75° |
| 2026-05-07 13:21 | 30.58890 | -88.96457 | 34972 ft | 542 kts | 75° |
| 2026-05-07 13:21 | 30.60819 | -88.88030 | 34972 ft | 537 kts | 75° |
| 2026-05-07 13:22 | 30.62730 | -88.79654 | 34976 ft | 537 kts | 75° |
| 2026-05-07 13:22 | 30.64640 | -88.71266 | 34982 ft | 538 kts | 75° |
| 2026-05-07 13:23 | 30.66544 | -88.62932 | 34985 ft | 536 kts | 75° |
| 2026-05-07 13:23 | 30.68436 | -88.54537 | 34987 ft | 536 kts | 76° |
| 2026-05-07 13:24 | 30.70317 | -88.46141 | 34992 ft | 536 kts | 76° |
| 2026-05-07 13:24 | 30.72162 | -88.37728 | 34990 ft | 536 kts | 78° |
| 2026-05-07 13:25 | 30.73142 | -88.29165 | 34991 ft | 534 kts | 87° |
| 2026-05-07 13:25 | 30.73640 | -88.20555 | 34990 ft | 533 kts | 88° |
| 2026-05-07 13:26 | 30.74158 | -88.12007 | 34952 ft | 536 kts | 88° |
| 2026-05-07 13:26 | 30.74736 | -88.03264 | 35076 ft | 552 kts | 87° |
| 2026-05-07 13:27 | 30.75287 | -87.94298 | 34990 ft | 550 kts | 87° |
| 2026-05-07 13:27 | 30.75600 | -87.89916 | 34987 ft | 538 kts | 86° |
| 2026-05-07 13:27 | 30.75852 | -87.85598 | 34986 ft | 535 kts | 87° |
| 2026-05-07 13:28 | 30.76278 | -87.78340 | 34997 ft | 539 kts | 87° |
| 2026-05-07 13:28 | 30.76809 | -87.69680 | 35000 ft | 535 kts | 87° |
| 2026-05-07 13:29 | 30.77320 | -87.61140 | 35004 ft | 531 kts | 88° |
| 2026-05-07 13:29 | 30.77826 | -87.52559 | 35002 ft | 532 kts | 88° |
| 2026-05-07 13:30 | 30.78329 | -87.43952 | 35001 ft | 532 kts | 88° |
| 2026-05-07 13:30 | 30.78844 | -87.35375 | 35001 ft | 533 kts | 87° |
| 2026-05-07 13:31 | 30.79367 | -87.26817 | 34987 ft | 532 kts | 87° |
| 2026-05-07 13:31 | 30.79860 | -87.18209 | 34979 ft | 532 kts | 88° |
| 2026-05-07 13:32 | 30.80340 | -87.09619 | 34975 ft | 532 kts | 88° |
| 2026-05-07 13:32 | 30.80818 | -87.01016 | 34973 ft | 532 kts | 88° |
| 2026-05-07 13:33 | 30.81307 | -86.92429 | 34978 ft | 532 kts | 88° |
| 2026-05-07 13:33 | 30.81773 | -86.83846 | 34985 ft | 531 kts | 88° |
| 2026-05-07 13:34 | 30.82452 | -86.71059 | 35004 ft | 531 kts | 88° |
| 2026-05-07 13:35 | 30.82649 | -86.62483 | 35016 ft | 530 kts | 93° |
| 2026-05-07 13:35 | 30.82393 | -86.53929 | 35027 ft | 529 kts | 94° |
| 2026-05-07 13:36 | 30.82182 | -86.45364 | 35031 ft | 528 kts | 93° |
| 2026-05-07 13:36 | 30.81989 | -86.36820 | 35036 ft | 529 kts | 93° |
| 2026-05-07 13:37 | 30.81788 | -86.28268 | 35034 ft | 529 kts | 93° |
| 2026-05-07 13:37 | 30.81583 | -86.19726 | 35033 ft | 529 kts | 93° |
| 2026-05-07 13:38 | 30.81374 | -86.11225 | 35031 ft | 529 kts | 94° |
| 2026-05-07 13:38 | 30.81144 | -86.02681 | 35029 ft | 528 kts | 94° |
| 2026-05-07 13:39 | 30.80904 | -85.94146 | 35028 ft | 527 kts | 93° |
| 2026-05-07 13:39 | 30.80660 | -85.85637 | 35023 ft | 527 kts | 93° |
| 2026-05-07 13:40 | 30.80404 | -85.77103 | 35012 ft | 529 kts | 93° |
| 2026-05-07 13:40 | 30.80169 | -85.68541 | 35010 ft | 528 kts | 93° |
| 2026-05-07 13:41 | 30.79936 | -85.60002 | 35016 ft | 527 kts | 93° |
| 2026-05-07 13:41 | 30.79687 | -85.51484 | 35019 ft | 526 kts | 93° |
| 2026-05-07 13:42 | 30.79431 | -85.43032 | 35021 ft | 526 kts | 93° |
| 2026-05-07 13:42 | 30.79166 | -85.34530 | 35024 ft | 526 kts | 93° |
| 2026-05-07 13:43 | 30.78893 | -85.26020 | 35021 ft | 526 kts | 93° |
| 2026-05-07 13:43 | 30.78631 | -85.17517 | 35021 ft | 526 kts | 93° |
| 2026-05-07 13:44 | 30.78354 | -85.08998 | 35023 ft | 526 kts | 93° |
| 2026-05-07 13:44 | 30.78060 | -85.00489 | 35029 ft | 526 kts | 93° |
| 2026-05-07 13:45 | 30.77758 | -84.91999 | 35037 ft | 525 kts | 93° |
| 2026-05-07 13:45 | 30.77317 | -84.83570 | 35044 ft | 524 kts | 99° |
| 2026-05-07 13:46 | 30.75973 | -84.75266 | 35057 ft | 523 kts | 104° |
| 2026-05-07 13:46 | 30.74476 | -84.66986 | 35069 ft | 523 kts | 104° |
| 2026-05-07 13:47 | 30.72985 | -84.58706 | 35078 ft | 523 kts | 104° |
| 2026-05-07 13:47 | 30.71498 | -84.50445 | 35079 ft | 522 kts | 104° |
| 2026-05-07 13:48 | 30.70019 | -84.42178 | 35079 ft | 522 kts | 103° |
| 2026-05-07 13:48 | 30.68550 | -84.33897 | 35079 ft | 523 kts | 104° |
| 2026-05-07 13:49 | 30.67068 | -84.25629 | 35083 ft | 522 kts | 104° |
| 2026-05-07 13:49 | 30.65590 | -84.17429 | 35081 ft | 522 kts | 104° |
| 2026-05-07 13:50 | 30.64096 | -84.09186 | 35084 ft | 521 kts | 104° |
| 2026-05-07 13:50 | 30.62595 | -84.00938 | 35086 ft | 521 kts | 104° |
| 2026-05-07 13:51 | 30.61087 | -83.92684 | 35088 ft | 522 kts | 104° |
| 2026-05-07 13:51 | 30.59588 | -83.84435 | 35093 ft | 522 kts | 103° |
| 2026-05-07 13:52 | 30.58087 | -83.76247 | 35093 ft | 522 kts | 104° |
| 2026-05-07 13:52 | 30.56560 | -83.68011 | 35084 ft | 522 kts | 104° |
| 2026-05-07 13:53 | 30.55026 | -83.59786 | 35081 ft | 522 kts | 104° |
| 2026-05-07 13:53 | 30.53629 | -83.51525 | 35077 ft | 523 kts | 98° |
| 2026-05-07 13:54 | 30.53185 | -83.43085 | 35076 ft | 524 kts | 92° |
| 2026-05-07 13:54 | 30.52977 | -83.34640 | 35074 ft | 524 kts | 92° |
| 2026-05-07 13:55 | 30.52738 | -83.26194 | 35073 ft | 524 kts | 92° |
| 2026-05-07 13:55 | 30.52483 | -83.17755 | 35067 ft | 523 kts | 92° |
| 2026-05-07 13:56 | 30.52228 | -83.09309 | 35070 ft | 523 kts | 92° |
| 2026-05-07 13:56 | 30.51981 | -83.00888 | 35070 ft | 522 kts | 92° |
| 2026-05-07 13:57 | 30.51720 | -82.92516 | 35070 ft | 522 kts | 92° |
| 2026-05-07 13:57 | 30.51465 | -82.84087 | 35070 ft | 522 kts | 92° |
| 2026-05-07 13:58 | 30.51183 | -82.75668 | 35068 ft | 522 kts | 92° |
| 2026-05-07 13:58 | 30.50888 | -82.67243 | 35067 ft | 522 kts | 92° |
| 2026-05-07 13:59 | 30.50652 | -82.58826 | 35066 ft | 522 kts | 89° |
| 2026-05-07 13:59 | 30.51393 | -82.50487 | 35068 ft | 519 kts | 77° |
| 2026-05-07 14:00 | 30.53012 | -82.42335 | 35067 ft | 518 kts | 74° |
| 2026-05-07 14:00 | 30.54689 | -82.34249 | 35070 ft | 518 kts | 74° |
| 2026-05-07 14:01 | 30.56350 | -82.26102 | 35068 ft | 518 kts | 74° |
| 2026-05-07 14:01 | 30.57994 | -82.17955 | 35066 ft | 518 kts | 74° |
| 2026-05-07 14:02 | 30.59656 | -82.09812 | 35067 ft | 518 kts | 74° |
| 2026-05-07 14:02 | 30.61306 | -82.01673 | 35067 ft | 518 kts | 74° |
| 2026-05-07 14:03 | 30.62943 | -81.93528 | 35065 ft | 518 kts | 74° |
| 2026-05-07 14:03 | 30.64572 | -81.85375 | 35056 ft | 518 kts | 74° |
| 2026-05-07 14:04 | 30.66194 | -81.77217 | 35054 ft | 518 kts | 74° |
| 2026-05-07 14:04 | 30.67808 | -81.69066 | 35053 ft | 517 kts | 74° |
| 2026-05-07 14:05 | 30.69412 | -81.60937 | 35059 ft | 516 kts | 74° |
| 2026-05-07 14:05 | 30.71012 | -81.52793 | 35064 ft | 517 kts | 74° |
| 2026-05-07 14:06 | 30.72607 | -81.44649 | 35066 ft | 516 kts | 75° |
| 2026-05-07 14:06 | 30.74194 | -81.36517 | 35057 ft | 516 kts | 75° |
| 2026-05-07 14:07 | 30.75775 | -81.28387 | 35054 ft | 516 kts | 75° |
| 2026-05-07 14:07 | 30.77342 | -81.20299 | 35051 ft | 515 kts | 75° |
| 2026-05-07 14:08 | 30.78921 | -81.12118 | 35048 ft | 516 kts | 75° |
| 2026-05-07 14:08 | 30.80488 | -81.03972 | 35045 ft | 515 kts | 75° |
| 2026-05-07 14:09 | 30.82057 | -80.95786 | 35044 ft | 514 kts | 75° |
| 2026-05-07 14:09 | 30.83347 | -80.89036 | 35042 ft | 514 kts | 75° |
| 2026-05-07 14:10 | 30.84894 | -80.80914 | 35041 ft | 513 kts | 75° |
| 2026-05-07 14:10 | 30.86680 | -80.71496 | 35040 ft | 513 kts | 75° |
| 2026-05-07 14:11 | 30.87967 | -80.64691 | 35040 ft | 512 kts | 75° |
| 2026-05-07 14:11 | 30.89482 | -80.56649 | 35039 ft | 512 kts | 75° |
| 2026-05-07 14:12 | 30.91002 | -80.48549 | 35040 ft | 511 kts | 75° |
| 2026-05-07 14:12 | 30.92516 | -80.40455 | 35039 ft | 512 kts | 75° |
| 2026-05-07 14:13 | 30.94040 | -80.32354 | 35037 ft | 512 kts | 75° |
| 2026-05-07 14:13 | 30.95553 | -80.24235 | 35036 ft | 512 kts | 75° |
| 2026-05-07 14:14 | 30.97046 | -80.16131 | 35035 ft | 512 kts | 75° |
| 2026-05-07 14:14 | 30.98532 | -80.08023 | 35034 ft | 512 kts | 75° |
| 2026-05-07 14:15 | 31.00016 | -79.99907 | 35033 ft | 512 kts | 75° |
| 2026-05-07 14:15 | 31.01191 | -79.91718 | 35022 ft | 511 kts | 79° |
| 2026-05-07 14:16 | 31.02189 | -79.83524 | 35013 ft | 510 kts | 79° |
| 2026-05-07 14:16 | 31.03204 | -79.75329 | 35012 ft | 511 kts | 79° |
| 2026-05-07 14:17 | 31.04227 | -79.67126 | 35012 ft | 511 kts | 79° |
| 2026-05-07 14:17 | 31.05260 | -79.58907 | 35011 ft | 511 kts | 79° |
| 2026-05-07 14:18 | 31.06313 | -79.50738 | 35010 ft | 512 kts | 79° |
| 2026-05-07 14:18 | 31.07361 | -79.42514 | 35009 ft | 512 kts | 79° |
| 2026-05-07 14:19 | 31.08398 | -79.34293 | 35006 ft | 512 kts | 79° |
| 2026-05-07 14:19 | 31.09428 | -79.26072 | 35006 ft | 512 kts | 79° |
| 2026-05-07 14:20 | 31.10450 | -79.17855 | 35004 ft | 511 kts | 79° |
| 2026-05-07 14:20 | 31.11467 | -79.09638 | 35003 ft | 511 kts | 79° |
| 2026-05-07 14:21 | 31.12477 | -79.01423 | 35002 ft | 512 kts | 79° |
| 2026-05-07 14:21 | 31.13485 | -78.93191 | 35001 ft | 512 kts | 79° |
| 2026-05-07 14:22 | 31.14484 | -78.84973 | 34998 ft | 511 kts | 79° |
| 2026-05-07 14:22 | 31.15478 | -78.76755 | 34997 ft | 511 kts | 79° |
| 2026-05-07 14:23 | 31.16461 | -78.68590 | 34998 ft | 511 kts | 79° |
| 2026-05-07 14:23 | 31.17445 | -78.60368 | 34996 ft | 512 kts | 79° |
| 2026-05-07 14:24 | 31.18427 | -78.52117 | 34992 ft | 512 kts | 79° |
| 2026-05-07 14:24 | 31.19402 | -78.43886 | 34987 ft | 512 kts | 79° |
| 2026-05-07 14:25 | 31.20371 | -78.35652 | 34979 ft | 512 kts | 79° |
| 2026-05-07 14:25 | 31.21335 | -78.27414 | 34973 ft | 512 kts | 79° |
| 2026-05-07 14:26 | 31.22295 | -78.19157 | 34972 ft | 513 kts | 79° |
| 2026-05-07 14:26 | 31.23250 | -78.10909 | 34982 ft | 512 kts | 79° |
| 2026-05-07 14:27 | 31.24201 | -78.02644 | 34982 ft | 512 kts | 79° |
| 2026-05-07 14:27 | 31.25144 | -77.94396 | 34982 ft | 512 kts | 79° |
| 2026-05-07 14:28 | 31.26082 | -77.86148 | 34981 ft | 512 kts | 79° |
| 2026-05-07 14:28 | 31.27016 | -77.77889 | 34973 ft | 512 kts | 79° |
| 2026-05-07 14:29 | 31.27938 | -77.69693 | 34972 ft | 512 kts | 79° |
| 2026-05-07 14:29 | 31.28860 | -77.61443 | 34972 ft | 512 kts | 79° |
| 2026-05-07 14:30 | 31.29778 | -77.53179 | 34969 ft | 512 kts | 80° |
| 2026-05-07 14:30 | 31.30691 | -77.44910 | 34960 ft | 512 kts | 80° |
| 2026-05-07 14:31 | 31.31602 | -77.36639 | 34955 ft | 512 kts | 79° |
| 2026-05-07 14:31 | 31.32523 | -77.28368 | 34954 ft | 512 kts | 80° |
| 2026-05-07 14:32 | 31.33413 | -77.20137 | 34954 ft | 513 kts | 80° |
| 2026-05-07 14:32 | 31.34296 | -77.11869 | 34953 ft | 512 kts | 80° |
| 2026-05-07 14:33 | 31.35176 | -77.03599 | 34952 ft | 512 kts | 80° |
| 2026-05-07 14:33 | 31.36164 | -76.95354 | 34956 ft | 511 kts | 77° |
| 2026-05-07 14:34 | 31.37444 | -76.87172 | 34955 ft | 511 kts | 76° |
| 2026-05-07 14:34 | 31.38713 | -76.78974 | 34954 ft | 511 kts | 77° |
| 2026-05-07 14:35 | 31.39959 | -76.70772 | 34954 ft | 513 kts | 77° |
| 2026-05-07 14:35 | 31.41188 | -76.62598 | 34955 ft | 512 kts | 77° |
| 2026-05-07 14:36 | 31.42439 | -76.54386 | 34958 ft | 512 kts | 77° |
| 2026-05-07 14:36 | 31.43686 | -76.46159 | 34958 ft | 512 kts | 77° |
| 2026-05-07 14:37 | 31.44921 | -76.37929 | 34964 ft | 514 kts | 77° |
| 2026-05-07 14:37 | 31.46758 | -76.25556 | 34964 ft | 514 kts | 77° |
| 2026-05-07 14:38 | 31.47968 | -76.17346 | 34963 ft | 514 kts | 77° |
| 2026-05-07 14:38 | 31.49178 | -76.09086 | 34963 ft | 514 kts | 77° |
| 2026-05-07 14:39 | 31.50385 | -76.00816 | 34963 ft | 515 kts | 77° |
| 2026-05-07 14:39 | 31.51585 | -75.92546 | 34963 ft | 514 kts | 77° |
| 2026-05-07 14:40 | 31.52780 | -75.84271 | 34963 ft | 514 kts | 77° |
| 2026-05-07 14:40 | 31.53968 | -75.76007 | 34960 ft | 514 kts | 78° |
| 2026-05-07 14:41 | 31.55151 | -75.67739 | 34957 ft | 514 kts | 77° |
| 2026-05-07 14:41 | 31.56329 | -75.59468 | 34958 ft | 514 kts | 77° |
| 2026-05-07 14:42 | 31.57500 | -75.51199 | 34963 ft | 514 kts | 77° |
| 2026-05-07 14:42 | 31.58666 | -75.42934 | 34963 ft | 513 kts | 78° |
| 2026-05-07 14:43 | 31.59817 | -75.34733 | 34963 ft | 512 kts | 77° |
| 2026-05-07 14:43 | 31.60969 | -75.26489 | 34971 ft | 512 kts | 77° |
| 2026-05-07 14:44 | 31.62115 | -75.18239 | 34978 ft | 512 kts | 77° |
| 2026-05-07 14:44 | 31.63257 | -75.09983 | 34979 ft | 512 kts | 77° |
| 2026-05-07 14:45 | 31.64391 | -75.01745 | 34981 ft | 511 kts | 77° |
| 2026-05-07 14:45 | 31.65513 | -74.93554 | 34980 ft | 511 kts | 77° |
| 2026-05-07 14:46 | 31.66635 | -74.85325 | 34979 ft | 511 kts | 77° |
| 2026-05-07 14:46 | 31.67751 | -74.77098 | 34979 ft | 510 kts | 77° |
| 2026-05-07 14:47 | 31.68863 | -74.68853 | 34979 ft | 511 kts | 77° |
| 2026-05-07 14:47 | 31.69971 | -74.60603 | 34979 ft | 512 kts | 77° |
| 2026-05-07 14:48 | 31.71076 | -74.52332 | 34982 ft | 512 kts | 78° |
| 2026-05-07 14:48 | 31.72166 | -74.44131 | 34989 ft | 512 kts | 78° |
| 2026-05-07 14:49 | 31.73260 | -74.35863 | 34989 ft | 512 kts | 78° |
| 2026-05-07 14:49 | 31.74349 | -74.27582 | 34989 ft | 513 kts | 78° |
| 2026-05-07 14:50 | 31.75446 | -74.19294 | 34989 ft | 512 kts | 77° |
| 2026-05-07 14:50 | 31.76352 | -74.12417 | 34989 ft | 512 kts | 78° |
| 2026-05-07 14:51 | 31.77423 | -74.04137 | 34987 ft | 512 kts | 78° |
| 2026-05-07 14:51 | 31.78483 | -73.95851 | 34986 ft | 513 kts | 78° |
| 2026-05-07 14:52 | 31.79540 | -73.87561 | 34986 ft | 512 kts | 78° |
| 2026-05-07 14:52 | 31.80592 | -73.79282 | 34986 ft | 512 kts | 78° |
| 2026-05-07 14:53 | 31.81634 | -73.71003 | 34985 ft | 511 kts | 78° |
| 2026-05-07 14:53 | 31.82668 | -73.62722 | 34985 ft | 511 kts | 78° |
| 2026-05-07 14:54 | 31.83692 | -73.54454 | 34987 ft | 511 kts | 78° |
| 2026-05-07 14:54 | 31.84712 | -73.46178 | 35009 ft | 511 kts | 78° |
| 2026-05-07 14:55 | 31.85746 | -73.37974 | 35018 ft | 510 kts | 78° |
| 2026-05-07 14:55 | 31.86780 | -73.29718 | 35021 ft | 509 kts | 78° |
| 2026-05-07 14:56 | 31.87798 | -73.21487 | 35021 ft | 508 kts | 78° |
| 2026-05-07 14:56 | 31.88807 | -73.13251 | 35022 ft | 508 kts | 78° |
| 2026-05-07 14:57 | 31.89809 | -73.05019 | 35023 ft | 507 kts | 78° |
| 2026-05-07 14:57 | 31.90797 | -72.96846 | 35024 ft | 508 kts | 78° |
| 2026-05-07 14:58 | 31.91787 | -72.88611 | 35025 ft | 507 kts | 78° |
| 2026-05-07 14:58 | 31.92766 | -72.80406 | 35026 ft | 506 kts | 78° |
| 2026-05-07 14:59 | 31.93741 | -72.72208 | 35027 ft | 506 kts | 78° |
| 2026-05-07 14:59 | 31.94710 | -72.64005 | 35029 ft | 506 kts | 78° |
| 2026-05-07 15:00 | 31.95670 | -72.55837 | 35028 ft | 506 kts | 78° |
| 2026-05-07 15:00 | 31.96630 | -72.47616 | 35029 ft | 506 kts | 78° |
| 2026-05-07 15:01 | 31.97585 | -72.39393 | 35031 ft | 507 kts | 78° |
| 2026-05-07 15:01 | 31.98534 | -72.31168 | 35032 ft | 507 kts | 78° |
| 2026-05-07 15:02 | 31.99479 | -72.22938 | 35031 ft | 507 kts | 78° |
| 2026-05-07 15:02 | 32.00423 | -72.14707 | 35032 ft | 507 kts | 77° |
| 2026-05-07 15:03 | 32.01373 | -72.06479 | 35033 ft | 507 kts | 78° |
| 2026-05-07 15:03 | 32.02299 | -71.98248 | 35035 ft | 507 kts | 78° |
| 2026-05-07 15:04 | 32.03211 | -71.90044 | 35037 ft | 507 kts | 78° |
| 2026-05-07 15:04 | 32.04123 | -71.81794 | 35038 ft | 507 kts | 78° |
| 2026-05-07 15:05 | 32.04999 | -71.73541 | 35040 ft | 507 kts | 79° |
| 2026-05-07 15:05 | 32.05828 | -71.65278 | 35042 ft | 506 kts | 79° |
| 2026-05-07 15:06 | 32.06655 | -71.57029 | 35033 ft | 508 kts | 79° |
| 2026-05-07 15:06 | 32.07470 | -71.48758 | 35025 ft | 513 kts | 81° |
| 2026-05-07 15:07 | 32.08285 | -71.40385 | 35024 ft | 512 kts | 81° |
| 2026-05-07 15:07 | 32.09117 | -71.32058 | 35026 ft | 511 kts | 80° |
| 2026-05-07 15:08 | 32.09951 | -71.23720 | 35028 ft | 511 kts | 80° |
| 2026-05-07 15:08 | 32.10771 | -71.15389 | 35030 ft | 511 kts | 80° |
| 2026-05-07 15:09 | 32.11582 | -71.07067 | 35033 ft | 509 kts | 80° |
| 2026-05-07 15:09 | 32.12378 | -70.98812 | 35035 ft | 510 kts | 80° |
| 2026-05-07 15:10 | 32.13173 | -70.90502 | 35037 ft | 509 kts | 80° |
| 2026-05-07 15:10 | 32.13961 | -70.82200 | 35039 ft | 509 kts | 80° |
| 2026-05-07 15:11 | 32.14741 | -70.73922 | 35041 ft | 507 kts | 80° |
| 2026-05-07 15:11 | 32.15516 | -70.65637 | 35043 ft | 508 kts | 80° |
| 2026-05-07 15:12 | 32.16285 | -70.57351 | 35045 ft | 507 kts | 80° |
| 2026-05-07 15:12 | 32.17049 | -70.49069 | 35047 ft | 507 kts | 80° |
| 2026-05-07 15:13 | 32.17801 | -70.40847 | 35049 ft | 506 kts | 80° |
| 2026-05-07 15:13 | 32.18552 | -70.32578 | 35051 ft | 506 kts | 80° |
| 2026-05-07 15:14 | 32.19297 | -70.24318 | 35053 ft | 506 kts | 80° |
| 2026-05-07 15:14 | 32.20033 | -70.16100 | 35056 ft | 505 kts | 80° |
| 2026-05-07 15:15 | 32.20768 | -70.07830 | 35058 ft | 505 kts | 80° |
| 2026-05-07 15:15 | 32.21498 | -69.99557 | 35060 ft | 505 kts | 80° |
| 2026-05-07 15:16 | 32.22215 | -69.91362 | 35062 ft | 505 kts | 80° |
| 2026-05-07 15:16 | 32.22933 | -69.83100 | 35064 ft | 504 kts | 80° |
| 2026-05-07 15:17 | 32.23644 | -69.74847 | 35066 ft | 506 kts | 80° |
| 2026-05-07 15:17 | 32.24351 | -69.66578 | 35069 ft | 505 kts | 80° |
| 2026-05-07 15:18 | 32.25048 | -69.58377 | 35071 ft | 504 kts | 80° |
| 2026-05-07 15:18 | 32.25742 | -69.50134 | 35072 ft | 504 kts | 80° |
| 2026-05-07 15:19 | 32.26431 | -69.41888 | 35075 ft | 504 kts | 81° |
| 2026-05-07 15:19 | 32.27113 | -69.33664 | 35078 ft | 503 kts | 81° |
| 2026-05-07 15:20 | 32.27789 | -69.25444 | 35080 ft | 502 kts | 81° |
| 2026-05-07 15:20 | 32.28459 | -69.17229 | 35082 ft | 502 kts | 81° |
| 2026-05-07 15:21 | 32.29122 | -69.09021 | 35084 ft | 501 kts | 81° |
| 2026-05-07 15:21 | 32.29780 | -69.00837 | 35086 ft | 499 kts | 81° |
| 2026-05-07 15:22 | 32.30427 | -68.92712 | 35088 ft | 499 kts | 81° |
| 2026-05-07 15:22 | 32.31073 | -68.84539 | 35090 ft | 498 kts | 81° |
| 2026-05-07 15:23 | 32.31711 | -68.76387 | 35092 ft | 497 kts | 81° |
| 2026-05-07 15:23 | 32.32344 | -68.68234 | 35094 ft | 497 kts | 81° |
| 2026-05-07 15:24 | 32.32972 | -68.60140 | 35096 ft | 497 kts | 81° |
| 2026-05-07 15:24 | 32.33610 | -68.52009 | 35099 ft | 496 kts | 81° |
| 2026-05-07 15:25 | 32.34223 | -68.43882 | 35100 ft | 495 kts | 81° |
| 2026-05-07 15:25 | 32.34824 | -68.35768 | 35101 ft | 495 kts | 81° |
| 2026-05-07 15:26 | 32.35420 | -68.27665 | 35104 ft | 494 kts | 81° |
| 2026-05-07 15:26 | 32.35509 | -68.19553 | 35106 ft | 499 kts | 91° |
| 2026-05-07 15:27 | 32.34853 | -68.11368 | 35108 ft | 500 kts | 93° |
| 2026-05-07 15:27 | 32.34153 | -68.03197 | 35109 ft | 499 kts | 93° |
| 2026-05-07 15:28 | 32.33465 | -67.95039 | 35111 ft | 498 kts | 93° |
| 2026-05-07 15:28 | 32.32778 | -67.86881 | 35113 ft | 498 kts | 93° |
| 2026-05-07 15:29 | 32.32106 | -67.78723 | 35114 ft | 499 kts | 92° |
| 2026-05-07 15:29 | 32.31442 | -67.70557 | 35116 ft | 498 kts | 92° |
| 2026-05-07 15:30 | 32.30768 | -67.62455 | 35117 ft | 498 kts | 93° |
| 2026-05-07 15:30 | 32.30081 | -67.54304 | 35119 ft | 498 kts | 93° |
| 2026-05-07 15:31 | 32.29386 | -67.46141 | 35120 ft | 498 kts | 93° |
| 2026-05-07 15:31 | 32.28702 | -67.37992 | 34918 ft | 499 kts | 93° |
| 2026-05-07 15:32 | 32.28355 | -67.33909 | 34667 ft | 497 kts | 93° |
| 2026-05-07 15:32 | 32.28005 | -67.29855 | 34417 ft | 494 kts | 93° |
| 2026-05-07 15:32 | 32.27657 | -67.25883 | 34170 ft | 490 kts | 94° |
| 2026-05-07 15:32 | 32.27305 | -67.21889 | 33919 ft | 488 kts | 94° |
| 2026-05-07 15:33 | 32.26951 | -67.17909 | 33668 ft | 486 kts | 94° |
| 2026-05-07 15:33 | 32.26598 | -67.13945 | 33418 ft | 484 kts | 94° |
| 2026-05-07 15:33 | 32.26247 | -67.10007 | 33167 ft | 482 kts | 94° |
| 2026-05-07 15:33 | 32.25896 | -67.06073 | 32916 ft | 480 kts | 94° |
| 2026-05-07 15:34 | 32.25545 | -67.02153 | 32666 ft | 478 kts | 94° |
| 2026-05-07 15:34 | 32.25194 | -66.98251 | 32415 ft | 476 kts | 94° |
| 2026-05-07 15:34 | 32.24842 | -66.94368 | 32163 ft | 474 kts | 94° |
| 2026-05-07 15:34 | 32.24489 | -66.90494 | 31913 ft | 472 kts | 95° |
| 2026-05-07 15:35 | 32.24138 | -66.86643 | 31651 ft | 470 kts | 95° |
| 2026-05-07 15:35 | 32.23788 | -66.82831 | 31264 ft | 464 kts | 95° |
| 2026-05-07 15:35 | 32.23444 | -66.79055 | 30838 ft | 461 kts | 95° |
| 2026-05-07 15:35 | 32.23121 | -66.75299 | 30412 ft | 458 kts | 95° |
| 2026-05-07 15:36 | 32.22791 | -66.71570 | 29989 ft | 455 kts | 95° |
| 2026-05-07 15:36 | 32.22459 | -66.67912 | 29574 ft | 453 kts | 95° |
| 2026-05-07 15:36 | 32.22119 | -66.64224 | 29153 ft | 450 kts | 95° |
| 2026-05-07 15:36 | 32.21779 | -66.60560 | 28732 ft | 448 kts | 95° |
| 2026-05-07 15:37 | 32.21437 | -66.56911 | 28311 ft | 445 kts | 96° |
| 2026-05-07 15:37 | 32.21096 | -66.53278 | 27891 ft | 443 kts | 95° |
| 2026-05-07 15:37 | 32.20867 | -66.50842 | 27609 ft | 442 kts | 96° |
| 2026-05-07 15:37 | 32.20528 | -66.47252 | 27190 ft | 439 kts | 96° |
| 2026-05-07 15:38 | 32.20191 | -66.43673 | 26771 ft | 437 kts | 95° |
| 2026-05-07 15:38 | 32.19850 | -66.40117 | 26354 ft | 435 kts | 96° |
| 2026-05-07 15:38 | 32.19495 | -66.36576 | 25935 ft | 433 kts | 96° |
| 2026-05-07 15:38 | 32.19145 | -66.33098 | 25522 ft | 432 kts | 96° |
| 2026-05-07 15:39 | 32.18790 | -66.29586 | 25105 ft | 430 kts | 96° |
| 2026-05-07 15:39 | 32.18435 | -66.26088 | 24688 ft | 428 kts | 96° |
| 2026-05-07 15:39 | 32.18080 | -66.22598 | 24271 ft | 426 kts | 96° |
| 2026-05-07 15:39 | 32.17727 | -66.19135 | 23856 ft | 424 kts | 96° |
| 2026-05-07 15:40 | 32.17374 | -66.15684 | 23439 ft | 423 kts | 96° |
| 2026-05-07 15:40 | 32.17022 | -66.12247 | 23024 ft | 421 kts | 96° |
| 2026-05-07 15:40 | 32.16670 | -66.08819 | 22608 ft | 419 kts | 96° |
| 2026-05-07 15:40 | 32.16320 | -66.05410 | 22194 ft | 418 kts | 96° |
| 2026-05-07 15:41 | 32.15969 | -66.02008 | 21778 ft | 416 kts | 96° |
| 2026-05-07 15:41 | 32.15641 | -65.98618 | 21365 ft | 414 kts | 96° |
| 2026-05-07 15:41 | 32.15312 | -65.95251 | 20954 ft | 412 kts | 96° |
| 2026-05-07 15:41 | 32.14976 | -65.91896 | 20544 ft | 410 kts | 96° |
| 2026-05-07 15:42 | 32.14635 | -65.88558 | 20135 ft | 409 kts | 96° |
| 2026-05-07 15:42 | 32.14292 | -65.85239 | 19731 ft | 407 kts | 96° |
| 2026-05-07 15:42 | 32.13952 | -65.81973 | 19331 ft | 405 kts | 96° |
| 2026-05-07 15:42 | 32.13607 | -65.78684 | 18930 ft | 403 kts | 97° |
| 2026-05-07 15:43 | 32.13262 | -65.75408 | 18527 ft | 401 kts | 97° |
| 2026-05-07 15:43 | 32.12919 | -65.72155 | 18129 ft | 399 kts | 97° |
| 2026-05-07 15:43 | 32.12577 | -65.68913 | 17732 ft | 397 kts | 97° |
| 2026-05-07 15:43 | 32.12247 | -65.65679 | 17333 ft | 395 kts | 95° |
| 2026-05-07 15:44 | 32.12166 | -65.62455 | 16938 ft | 392 kts | 88° |
| 2026-05-07 15:44 | 32.12326 | -65.59259 | 16547 ft | 388 kts | 84° |
| 2026-05-07 15:44 | 32.12592 | -65.56104 | 16158 ft | 385 kts | 83° |
| 2026-05-07 15:44 | 32.12916 | -65.52975 | 15770 ft | 382 kts | 82° |
| 2026-05-07 15:45 | 32.13242 | -65.49879 | 15388 ft | 378 kts | 82° |
| 2026-05-07 15:45 | 32.13559 | -65.46804 | 15008 ft | 375 kts | 82° |
| 2026-05-07 15:45 | 32.13863 | -65.43802 | 14638 ft | 372 kts | 82° |
| 2026-05-07 15:45 | 32.14165 | -65.40768 | 14263 ft | 369 kts | 82° |
| 2026-05-07 15:46 | 32.14752 | -65.34787 | 13524 ft | 364 kts | 83° |
| 2026-05-07 15:46 | 32.15038 | -65.31833 | 13157 ft | 361 kts | 83° |
| 2026-05-07 15:46 | 32.15321 | -65.28893 | 12793 ft | 358 kts | 83° |
| 2026-05-07 15:47 | 32.15599 | -65.25983 | 12434 ft | 356 kts | 83° |
| 2026-05-07 15:47 | 32.15875 | -65.23090 | 12077 ft | 354 kts | 82° |
| 2026-05-07 15:47 | 32.16162 | -65.20212 | 11723 ft | 351 kts | 82° |
| 2026-05-07 15:47 | 32.16439 | -65.17395 | 11378 ft | 349 kts | 82° |
| 2026-05-07 15:48 | 32.16715 | -65.14560 | 11027 ft | 347 kts | 83° |
| 2026-05-07 15:48 | 32.16987 | -65.11749 | 10786 ft | 341 kts | 83° |
| 2026-05-07 15:48 | 32.17252 | -65.08995 | 10592 ft | 334 kts | 83° |
| 2026-05-07 15:48 | 32.17508 | -65.06298 | 10406 ft | 328 kts | 83° |
| 2026-05-07 15:49 | 32.17760 | -65.03650 | 10223 ft | 321 kts | 83° |
| 2026-05-07 15:49 | 32.18005 | -65.01056 | 10048 ft | 315 kts | 83° |
| 2026-05-07 15:49 | 32.18244 | -64.98525 | 9998 ft | 304 kts | 83° |
| 2026-05-07 15:49 | 32.18475 | -64.96068 | 9773 ft | 301 kts | 83° |
| 2026-05-07 15:50 | 32.18709 | -64.93574 | 9253 ft | 308 kts | 83° |
| 2026-05-07 15:50 | 32.18944 | -64.91057 | 8935 ft | 307 kts | 83° |
| 2026-05-07 15:50 | 32.19177 | -64.88556 | 8634 ft | 306 kts | 83° |
| 2026-05-07 15:50 | 32.19408 | -64.86105 | 8337 ft | 304 kts | 83° |
| 2026-05-07 15:51 | 32.19648 | -64.83614 | 8036 ft | 303 kts | 83° |
| 2026-05-07 15:51 | 32.19882 | -64.81148 | 7735 ft | 301 kts | 83° |
| 2026-05-07 15:51 | 32.20110 | -64.78703 | 7436 ft | 300 kts | 83° |
| 2026-05-07 15:51 | 32.20336 | -64.76260 | 7138 ft | 298 kts | 83° |
| 2026-05-07 15:52 | 32.20558 | -64.73833 | 6839 ft | 296 kts | 83° |
| 2026-05-07 15:52 | 32.20778 | -64.71420 | 6540 ft | 295 kts | 83° |
| 2026-05-07 15:52 | 32.20995 | -64.69025 | 6241 ft | 293 kts | 83° |
| 2026-05-07 15:52 | 32.21210 | -64.66639 | 5941 ft | 291 kts | 83° |
| 2026-05-07 15:53 | 32.21424 | -64.64266 | 5669 ft | 288 kts | 83° |
| 2026-05-07 15:53 | 32.21633 | -64.61938 | 5499 ft | 282 kts | 83° |
| 2026-05-07 15:53 | 32.21836 | -64.59664 | 5339 ft | 275 kts | 83° |
| 2026-05-07 15:53 | 32.22034 | -64.57450 | 5186 ft | 268 kts | 83° |
| 2026-05-07 15:54 | 32.22227 | -64.55288 | 5040 ft | 261 kts | 83° |
| 2026-05-07 15:54 | 32.22414 | -64.53200 | 4898 ft | 254 kts | 83° |
| 2026-05-07 15:54 | 32.22598 | -64.51144 | 4758 ft | 246 kts | 83° |
| 2026-05-07 15:54 | 32.23038 | -64.49234 | 4600 ft | 239 kts | 59° |
| 2026-05-07 15:55 | 32.24191 | -64.47868 | 4342 ft | 235 kts | 25° |
| 2026-05-07 15:55 | 32.25722 | -64.47406 | 4155 ft | 229 kts | 5° |
| 2026-05-07 15:55 | 32.27295 | -64.47263 | 4076 ft | 218 kts | 4° |
| 2026-05-07 15:55 | 32.28772 | -64.47035 | 3983 ft | 210 kts | 8° |
| 2026-05-07 15:56 | 32.30206 | -64.46864 | 3612 ft | 212 kts | 349° |
| 2026-05-07 15:56 | 32.31509 | -64.47655 | 3171 ft | 215 kts | 316° |
| 2026-05-07 15:56 | 32.32357 | -64.49065 | 2911 ft | 206 kts | 297° |
| 2026-05-07 15:56 | 32.32869 | -64.50615 | 2623 ft | 199 kts | 290° |
| 2026-05-07 15:57 | 32.33277 | -64.52161 | 2353 ft | 195 kts | 286° |
| 2026-05-07 15:57 | 32.33595 | -64.53702 | 2097 ft | 190 kts | 284° |
| 2026-05-07 15:57 | 32.33889 | -64.55201 | 1846 ft | 183 kts | 284° |
| 2026-05-07 15:57 | 32.34173 | -64.56656 | 1604 ft | 180 kts | 284° |
| 2026-05-07 15:58 | 32.34449 | -64.58070 | 1370 ft | 178 kts | 284° |
| 2026-05-07 15:58 | 32.34722 | -64.59465 | 1130 ft | 170 kts | 284° |
| 2026-05-07 15:58 | 32.34984 | -64.60806 | 915 ft | 164 kts | 284° |
| 2026-05-07 15:58 | 32.35235 | -64.62089 | 732 ft | 158 kts | 284° |
| 2026-05-07 15:59 | 32.35455 | -64.63159 | 537 ft | 155 kts | 287° |
| 2026-05-07 16:00 | 32.35484 | -64.63274 | 516 ft | 155 kts | 288° |
| 2026-05-07 16:00 | 32.35817 | -64.64484 | 323 ft | 155 kts | 287° |
| 2026-05-07 16:01 | 32.36033 | -64.65738 | 164 ft | 157 kts | 282° |
| 2026-05-07 16:01 | 32.36251 | -64.66992 | 27 ft | 150 kts | 283° |
| 2026-05-07 16:01 | 32.36441 | -64.68077 | 20 ft | 106 kts | 283° |
| 2026-05-07 16:01 | 32.36532 | -64.68588 | 20 ft | 38 kts | 283° |
| 2026-05-07 16:02 | 32.36584 | -64.68876 | 20 ft | 32 kts | 281° |
| 2026-05-07 16:02 | 32.36625 | -64.69110 | 20 ft | 26 kts | 277° |
| 2026-05-07 16:02 | 32.36577 | -64.69274 | 20 ft | 18 kts | 236° |
| 2026-05-07 16:02 | 32.36500 | -64.69413 | 20 ft | 26 kts | 237° |
| 2026-05-07 16:03 | 32.36380 | -64.69629 | 20 ft | 34 kts | 237° |
| 2026-05-07 16:03 | 32.36254 | -64.69858 | 20 ft | 32 kts | 237° |
| 2026-05-07 16:03 | 32.36132 | -64.70076 | 20 ft | 31 kts | 233° |
| 2026-05-07 16:03 | 32.36022 | -64.70277 | 20 ft | 27 kts | 228° |
| 2026-05-07 16:04 | 32.35855 | -64.70335 | 20 ft | 25 kts | 187° |
| 2026-05-07 16:04 | 32.35744 | -64.70449 | 20 ft | 22 kts | 237° |
| 2026-05-07 16:04 | 32.35660 | -64.70605 | 20 ft | 23 kts | 237° |
| 2026-05-07 16:04 | 32.35597 | -64.70679 | 20 ft | 9 kts | 161° |
| 2026-05-07 16:05 | 32.35533 | -64.70643 | 20 ft | 11 kts | 149° |
| 2026-05-07 16:05 | 32.35492 | -64.70615 | 20 ft | 0 kts | 149° |